sensor_id;sensor_type;location;lat;lon;timestamp;temperature;humidity
41939;DHT22;23057;48.554;14.454;2022-12-11T00:00:43;-2.20;99.90
41939;DHT22;23057;48.554;14.454;2022-12-11T00:03:18;-2.20;99.90
41939;DHT22;23057;48.554;14.454;2022-12-11T00:05:48;-2.20;99.90
41939;DHT22;23057;48.554;14.454;2022-12-11T00:08:19;-2.20;99.90
41939;DHT22;23057;48.554;14.454;2022-12-11T00:10:50;-2.10;99.90
41939;DHT22;23057;48.554;14.454;2022-12-11T00:13:21;-2.20;99.90
41939;DHT22;23057;48.554;14.454;2022-12-11T00:15:52;-2.20;99.90
41939;DHT22;23057;48.554;14.454;2022-12-11T00:18:23;-2.20;99.90
41939;DHT22;23057;48.554;14.454;2022-12-11T00:20:54;-2.20;99.90
41939;DHT22;23057;48.554;14.454;2022-12-11T00:23:24;-2.20;99.90
41939;DHT22;23057;48.554;14.454;2022-12-11T00:25:55;-2.20;99.90
41939;DHT22;23057;48.554;14.454;2022-12-11T00:28:26;-2.20;99.90
41939;DHT22;23057;48.554;14.454;2022-12-11T00:30:57;-2.20;99.90
41939;DHT22;23057;48.554;14.454;2022-12-11T00:33:28;-2.20;99.90
41939;DHT22;23057;48.554;14.454;2022-12-11T00:35:59;-2.20;99.90
41939;DHT22;23057;48.554;14.454;2022-12-11T00:38:30;-2.20;99.90
41939;DHT22;23057;48.554;14.454;2022-12-11T00:41:01;-2.20;99.90
41939;DHT22;23057;48.554;14.454;2022-12-11T00:43:32;-2.20;99.90
41939;DHT22;23057;48.554;14.454;2022-12-11T00:46:03;-2.10;99.90
41939;DHT22;23057;48.554;14.454;2022-12-11T00:48:34;-2.20;99.90
41939;DHT22;23057;48.554;14.454;2022-12-11T00:51:06;-2.20;99.90
41939;DHT22;23057;48.554;14.454;2022-12-11T00:53:38;-2.20;99.90
41939;DHT22;23057;48.554;14.454;2022-12-11T00:56:20;-2.20;99.90
41939;DHT22;23057;48.554;14.454;2022-12-11T00:58:52;-2.10;99.90
41939;DHT22;23057;48.554;14.454;2022-12-11T01:01:23;-2.10;99.90
41939;DHT22;23057;48.554;14.454;2022-12-11T01:03:55;-2.20;99.90
41939;DHT22;23057;48.554;14.454;2022-12-11T01:06:26;-2.20;99.90
41939;DHT22;23057;48.554;14.454;2022-12-11T01:08:58;-2.20;99.90
41939;DHT22;23057;48.554;14.454;2022-12-11T01:11:47;-2.20;99.90
41939;DHT22;23057;48.554;14.454;2022-12-11T01:14:18;-2.20;99.90
41939;DHT22;23057;48.554;14.454;2022-12-11T01:16:49;-2.20;99.90
41939;DHT22;23057;48.554;14.454;2022-12-11T01:19:20;-2.20;99.90
41939;DHT22;23057;48.554;14.454;2022-12-11T01:21:51;-2.20;99.90
41939;DHT22;23057;48.554;14.454;2022-12-11T01:24:22;-2.20;99.90
41939;DHT22;23057;48.554;14.454;2022-12-11T01:26:53;-2.20;99.90
41939;DHT22;23057;48.554;14.454;2022-12-11T01:29:23;-2.20;99.90
41939;DHT22;23057;48.554;14.454;2022-12-11T01:31:54;-2.20;99.90
41939;DHT22;23057;48.554;14.454;2022-12-11T01:34:28;-2.20;99.90
41939;DHT22;23057;48.554;14.454;2022-12-11T01:37:00;-2.20;99.90
41939;DHT22;23057;48.554;14.454;2022-12-11T01:39:31;-2.20;99.90
41939;DHT22;23057;48.554;14.454;2022-12-11T01:42:02;-2.20;99.90
41939;DHT22;23057;48.554;14.454;2022-12-11T01:47:04;-2.20;99.90
41939;DHT22;23057;48.554;14.454;2022-12-11T01:49:35;-2.20;99.90
41939;DHT22;23057;48.554;14.454;2022-12-11T01:52:15;-2.20;99.90
41939;DHT22;23057;48.554;14.454;2022-12-11T01:54:51;-2.20;99.90
41939;DHT22;23057;48.554;14.454;2022-12-11T01:57:22;-2.20;99.90
41939;DHT22;23057;48.554;14.454;2022-12-11T01:59:53;-2.20;99.90
41939;DHT22;23057;48.554;14.454;2022-12-11T02:02:27;-2.20;99.90
41939;DHT22;23057;48.554;14.454;2022-12-11T02:05:02;-2.20;99.90
41939;DHT22;23057;48.554;14.454;2022-12-11T02:07:40;-2.20;99.90
41939;DHT22;23057;48.554;14.454;2022-12-11T02:10:17;-2.20;99.90
41939;DHT22;23057;48.554;14.454;2022-12-11T02:13:08;-2.20;99.90
41939;DHT22;23057;48.554;14.454;2022-12-11T02:16:20;-2.20;99.90
41939;DHT22;23057;48.554;14.454;2022-12-11T02:19:17;-2.20;99.90
41939;DHT22;23057;48.554;14.454;2022-12-11T02:22:07;-2.20;99.90
41939;DHT22;23057;48.554;14.454;2022-12-11T02:31:04;-2.20;99.90
41939;DHT22;23057;48.554;14.454;2022-12-11T02:34:00;-2.20;99.90
41939;DHT22;23057;48.554;14.454;2022-12-11T02:37:00;-2.20;99.90
41939;DHT22;23057;48.554;14.454;2022-12-11T02:39:38;-2.20;99.90
41939;DHT22;23057;48.554;14.454;2022-12-11T02:42:15;-2.20;99.90
41939;DHT22;23057;48.554;14.454;2022-12-11T02:44:48;-2.20;99.90
41939;DHT22;23057;48.554;14.454;2022-12-11T02:47:23;-2.20;99.90
41939;DHT22;23057;48.554;14.454;2022-12-11T02:50:01;-2.20;99.90
41939;DHT22;23057;48.554;14.454;2022-12-11T02:52:40;-2.20;99.90
41939;DHT22;23057;48.554;14.454;2022-12-11T02:55:15;-2.20;99.90
41939;DHT22;23057;48.554;14.454;2022-12-11T02:57:55;-2.20;99.90
41939;DHT22;23057;48.554;14.454;2022-12-11T03:00:37;-2.30;99.90
41939;DHT22;23057;48.554;14.454;2022-12-11T03:03:08;-2.30;99.90
41939;DHT22;23057;48.554;14.454;2022-12-11T03:05:40;-2.30;99.90
41939;DHT22;23057;48.554;14.454;2022-12-11T03:08:12;-2.30;99.90
41939;DHT22;23057;48.554;14.454;2022-12-11T03:10:46;-2.30;99.90
41939;DHT22;23057;48.554;14.454;2022-12-11T03:13:19;-2.30;99.90
41939;DHT22;23057;48.554;14.454;2022-12-11T03:19:35;-2.30;99.90
41939;DHT22;23057;48.554;14.454;2022-12-11T03:22:18;-2.30;99.90
41939;DHT22;23057;48.554;14.454;2022-12-11T03:25:11;-2.30;99.90
41939;DHT22;23057;48.554;14.454;2022-12-11T03:27:58;-2.30;99.90
41939;DHT22;23057;48.554;14.454;2022-12-11T03:30:43;-2.30;99.90
41939;DHT22;23057;48.554;14.454;2022-12-11T03:33:27;-2.30;99.90
41939;DHT22;23057;48.554;14.454;2022-12-11T03:36:19;-2.30;99.90
41939;DHT22;23057;48.554;14.454;2022-12-11T03:39:09;-2.30;99.90
41939;DHT22;23057;48.554;14.454;2022-12-11T03:41:49;-2.30;99.90
41939;DHT22;23057;48.554;14.454;2022-12-11T03:44:23;-2.30;99.90
41939;DHT22;23057;48.554;14.454;2022-12-11T03:47:00;-2.30;99.90
41939;DHT22;23057;48.554;14.454;2022-12-11T03:49:38;-2.30;99.90
41939;DHT22;23057;48.554;14.454;2022-12-11T03:52:13;-2.30;99.90
41939;DHT22;23057;48.554;14.454;2022-12-11T03:54:48;-2.30;99.90
41939;DHT22;23057;48.554;14.454;2022-12-11T03:57:21;-2.30;99.90
41939;DHT22;23057;48.554;14.454;2022-12-11T04:00:00;-2.30;99.90
41939;DHT22;23057;48.554;14.454;2022-12-11T04:02:34;-2.30;99.90
41939;DHT22;23057;48.554;14.454;2022-12-11T04:05:05;-2.20;99.90
41939;DHT22;23057;48.554;14.454;2022-12-11T04:07:37;-2.30;99.90
41939;DHT22;23057;48.554;14.454;2022-12-11T04:10:08;-2.30;99.90
41939;DHT22;23057;48.554;14.454;2022-12-11T04:12:39;-2.30;99.90
41939;DHT22;23057;48.554;14.454;2022-12-11T04:15:10;-2.30;99.90
41939;DHT22;23057;48.554;14.454;2022-12-11T04:17:41;-2.30;99.90
41939;DHT22;23057;48.554;14.454;2022-12-11T04:20:30;-2.30;99.90
41939;DHT22;23057;48.554;14.454;2022-12-11T04:23:19;-2.40;99.90
41939;DHT22;23057;48.554;14.454;2022-12-11T04:26:15;-2.40;99.90
41939;DHT22;23057;48.554;14.454;2022-12-11T04:28:49;-2.40;99.90
41939;DHT22;23057;48.554;14.454;2022-12-11T04:31:21;-2.40;99.90
41939;DHT22;23057;48.554;14.454;2022-12-11T04:33:52;-2.40;99.90
41939;DHT22;23057;48.554;14.454;2022-12-11T04:36:23;-2.50;99.90
41939;DHT22;23057;48.554;14.454;2022-12-11T04:38:54;-2.40;99.90
41939;DHT22;23057;48.554;14.454;2022-12-11T04:41:25;-2.50;99.90
41939;DHT22;23057;48.554;14.454;2022-12-11T04:43:56;-2.50;99.90
41939;DHT22;23057;48.554;14.454;2022-12-11T04:46:27;-2.50;99.90
41939;DHT22;23057;48.554;14.454;2022-12-11T04:48:58;-2.50;99.90
41939;DHT22;23057;48.554;14.454;2022-12-11T04:51:29;-2.50;99.90
41939;DHT22;23057;48.554;14.454;2022-12-11T04:54:00;-2.60;99.90
41939;DHT22;23057;48.554;14.454;2022-12-11T04:56:31;-2.60;99.90
41939;DHT22;23057;48.554;14.454;2022-12-11T04:59:02;-2.60;99.90
41939;DHT22;23057;48.554;14.454;2022-12-11T05:01:32;-2.60;99.90
41939;DHT22;23057;48.554;14.454;2022-12-11T05:04:03;-2.60;99.90
41939;DHT22;23057;48.554;14.454;2022-12-11T05:06:34;-2.60;99.90
41939;DHT22;23057;48.554;14.454;2022-12-11T05:09:05;-2.70;99.90
41939;DHT22;23057;48.554;14.454;2022-12-11T05:11:39;-2.70;99.90
41939;DHT22;23057;48.554;14.454;2022-12-11T05:14:10;-2.80;99.90
41939;DHT22;23057;48.554;14.454;2022-12-11T05:16:41;-3.00;99.90
41939;DHT22;23057;48.554;14.454;2022-12-11T05:19:12;-3.10;99.90
41939;DHT22;23057;48.554;14.454;2022-12-11T05:21:43;-3.20;99.90
41939;DHT22;23057;48.554;14.454;2022-12-11T05:24:14;-3.20;99.90
41939;DHT22;23057;48.554;14.454;2022-12-11T05:26:45;-3.20;99.90
41939;DHT22;23057;48.554;14.454;2022-12-11T05:29:16;-3.20;99.90
41939;DHT22;23057;48.554;14.454;2022-12-11T05:31:47;-3.30;99.90
41939;DHT22;23057;48.554;14.454;2022-12-11T05:34:18;-3.30;99.90
41939;DHT22;23057;48.554;14.454;2022-12-11T05:36:48;-3.30;99.90
41939;DHT22;23057;48.554;14.454;2022-12-11T05:39:20;-3.20;99.90
41939;DHT22;23057;48.554;14.454;2022-12-11T05:41:50;-3.20;99.90
41939;DHT22;23057;48.554;14.454;2022-12-11T05:44:21;-3.10;99.90
41939;DHT22;23057;48.554;14.454;2022-12-11T05:46:52;-3.10;99.90
41939;DHT22;23057;48.554;14.454;2022-12-11T05:49:23;-3.00;99.90
41939;DHT22;23057;48.554;14.454;2022-12-11T05:51:54;-3.00;99.90
41939;DHT22;23057;48.554;14.454;2022-12-11T05:54:25;-2.90;99.90
41939;DHT22;23057;48.554;14.454;2022-12-11T05:56:55;-3.00;99.90
41939;DHT22;23057;48.554;14.454;2022-12-11T05:59:26;-2.90;99.90
41939;DHT22;23057;48.554;14.454;2022-12-11T06:01:57;-3.00;99.90
41939;DHT22;23057;48.554;14.454;2022-12-11T06:04:28;-3.00;99.90
41939;DHT22;23057;48.554;14.454;2022-12-11T06:06:59;-3.00;99.90
41939;DHT22;23057;48.554;14.454;2022-12-11T06:09:29;-3.00;99.90
41939;DHT22;23057;48.554;14.454;2022-12-11T06:12:00;-3.00;99.90
41939;DHT22;23057;48.554;14.454;2022-12-11T06:14:31;-3.00;99.90
41939;DHT22;23057;48.554;14.454;2022-12-11T06:17:02;-2.90;99.90
41939;DHT22;23057;48.554;14.454;2022-12-11T06:19:33;-2.90;99.90
41939;DHT22;23057;48.554;14.454;2022-12-11T06:22:04;-2.90;99.90
41939;DHT22;23057;48.554;14.454;2022-12-11T06:24:35;-2.90;99.90
41939;DHT22;23057;48.554;14.454;2022-12-11T06:27:06;-2.90;99.90
41939;DHT22;23057;48.554;14.454;2022-12-11T06:29:36;-2.90;99.90
41939;DHT22;23057;48.554;14.454;2022-12-11T06:32:07;-2.90;99.90
41939;DHT22;23057;48.554;14.454;2022-12-11T06:34:38;-2.80;99.90
41939;DHT22;23057;48.554;14.454;2022-12-11T06:37:09;-2.80;99.90
41939;DHT22;23057;48.554;14.454;2022-12-11T06:39:41;-2.80;99.90
41939;DHT22;23057;48.554;14.454;2022-12-11T06:42:11;-2.80;99.90
41939;DHT22;23057;48.554;14.454;2022-12-11T06:44:43;-2.80;99.90
41939;DHT22;23057;48.554;14.454;2022-12-11T06:47:13;-2.80;99.90
41939;DHT22;23057;48.554;14.454;2022-12-11T06:49:44;-2.80;99.90
41939;DHT22;23057;48.554;14.454;2022-12-11T06:52:15;-2.90;99.90
41939;DHT22;23057;48.554;14.454;2022-12-11T06:54:46;-2.90;99.90
41939;DHT22;23057;48.554;14.454;2022-12-11T06:57:17;-2.90;99.90
41939;DHT22;23057;48.554;14.454;2022-12-11T06:59:48;-2.90;99.90
41939;DHT22;23057;48.554;14.454;2022-12-11T07:02:19;-2.90;99.90
41939;DHT22;23057;48.554;14.454;2022-12-11T07:04:50;-2.90;99.90
41939;DHT22;23057;48.554;14.454;2022-12-11T07:07:21;-2.90;99.90
41939;DHT22;23057;48.554;14.454;2022-12-11T07:09:52;-2.90;99.90
41939;DHT22;23057;48.554;14.454;2022-12-11T07:12:23;-2.90;99.90
41939;DHT22;23057;48.554;14.454;2022-12-11T07:14:54;-2.90;99.90
41939;DHT22;23057;48.554;14.454;2022-12-11T07:17:24;-2.90;99.90
41939;DHT22;23057;48.554;14.454;2022-12-11T07:19:55;-2.90;99.90
41939;DHT22;23057;48.554;14.454;2022-12-11T07:22:27;-2.90;99.90
41939;DHT22;23057;48.554;14.454;2022-12-11T07:24:58;-2.90;99.90
41939;DHT22;23057;48.554;14.454;2022-12-11T07:27:29;-2.90;99.90
41939;DHT22;23057;48.554;14.454;2022-12-11T07:30:00;-2.80;99.90
41939;DHT22;23057;48.554;14.454;2022-12-11T07:32:31;-2.70;99.90
41939;DHT22;23057;48.554;14.454;2022-12-11T07:35:02;-2.80;99.90
41939;DHT22;23057;48.554;14.454;2022-12-11T07:37:34;-2.80;99.90
41939;DHT22;23057;48.554;14.454;2022-12-11T07:40:05;-2.80;99.90
41939;DHT22;23057;48.554;14.454;2022-12-11T07:42:37;-2.80;99.90
41939;DHT22;23057;48.554;14.454;2022-12-11T07:45:08;-2.80;99.90
41939;DHT22;23057;48.554;14.454;2022-12-11T07:47:40;-2.70;99.90
41939;DHT22;23057;48.554;14.454;2022-12-11T07:50:11;-2.70;99.90
41939;DHT22;23057;48.554;14.454;2022-12-11T07:52:41;-2.70;99.90
41939;DHT22;23057;48.554;14.454;2022-12-11T07:55:12;-2.60;99.90
41939;DHT22;23057;48.554;14.454;2022-12-11T07:57:43;-2.50;99.90
41939;DHT22;23057;48.554;14.454;2022-12-11T08:00:14;-2.60;99.90
41939;DHT22;23057;48.554;14.454;2022-12-11T08:02:46;-2.50;99.90
41939;DHT22;23057;48.554;14.454;2022-12-11T08:05:17;-2.60;99.90
41939;DHT22;23057;48.554;14.454;2022-12-11T08:07:48;-2.50;99.90
41939;DHT22;23057;48.554;14.454;2022-12-11T08:10:19;-2.40;99.90
41939;DHT22;23057;48.554;14.454;2022-12-11T08:12:50;-2.40;99.90
41939;DHT22;23057;48.554;14.454;2022-12-11T08:15:20;-2.30;99.90
41939;DHT22;23057;48.554;14.454;2022-12-11T08:17:51;-2.20;99.90
41939;DHT22;23057;48.554;14.454;2022-12-11T08:20:22;-2.10;99.90
41939;DHT22;23057;48.554;14.454;2022-12-11T08:22:53;-2.10;99.90
41939;DHT22;23057;48.554;14.454;2022-12-11T08:25:24;-2.10;99.90
41939;DHT22;23057;48.554;14.454;2022-12-11T08:27:54;-2.20;99.90
41939;DHT22;23057;48.554;14.454;2022-12-11T08:30:25;-2.20;99.90
41939;DHT22;23057;48.554;14.454;2022-12-11T08:32:56;-2.30;99.90
41939;DHT22;23057;48.554;14.454;2022-12-11T08:35:29;-2.30;99.90
41939;DHT22;23057;48.554;14.454;2022-12-11T08:37:59;-2.40;99.90
41939;DHT22;23057;48.554;14.454;2022-12-11T08:40:30;-2.40;99.90
41939;DHT22;23057;48.554;14.454;2022-12-11T08:43:01;-2.40;99.90
41939;DHT22;23057;48.554;14.454;2022-12-11T08:45:32;-2.40;99.90
41939;DHT22;23057;48.554;14.454;2022-12-11T08:48:03;-2.30;99.90
41939;DHT22;23057;48.554;14.454;2022-12-11T08:50:35;-2.20;99.90
41939;DHT22;23057;48.554;14.454;2022-12-11T08:53:07;-2.00;99.90
41939;DHT22;23057;48.554;14.454;2022-12-11T08:55:38;-1.90;99.90
41939;DHT22;23057;48.554;14.454;2022-12-11T08:58:08;-1.90;99.90
41939;DHT22;23057;48.554;14.454;2022-12-11T09:00:39;-1.90;99.90
41939;DHT22;23057;48.554;14.454;2022-12-11T09:03:10;-2.10;99.90
41939;DHT22;23057;48.554;14.454;2022-12-11T09:05:41;-2.00;99.90
41939;DHT22;23057;48.554;14.454;2022-12-11T09:08:12;-1.90;99.90
41939;DHT22;23057;48.554;14.454;2022-12-11T09:10:43;-1.70;99.90
41939;DHT22;23057;48.554;14.454;2022-12-11T09:13:13;-1.60;99.90
41939;DHT22;23057;48.554;14.454;2022-12-11T09:15:44;-1.50;99.90
41939;DHT22;23057;48.554;14.454;2022-12-11T09:18:15;-1.40;99.90
41939;DHT22;23057;48.554;14.454;2022-12-11T09:20:46;-1.50;99.90
41939;DHT22;23057;48.554;14.454;2022-12-11T09:23:17;-1.40;99.90
41939;DHT22;23057;48.554;14.454;2022-12-11T09:25:48;-1.40;99.90
41939;DHT22;23057;48.554;14.454;2022-12-11T09:28:18;-1.30;99.90
41939;DHT22;23057;48.554;14.454;2022-12-11T09:30:50;-1.20;99.90
41939;DHT22;23057;48.554;14.454;2022-12-11T09:33:21;-1.20;99.90
41939;DHT22;23057;48.554;14.454;2022-12-11T09:35:58;-1.20;99.90
41939;DHT22;23057;48.554;14.454;2022-12-11T09:38:31;-1.20;99.90
41939;DHT22;23057;48.554;14.454;2022-12-11T09:46:51;-1.50;1.00
41939;DHT22;23057;48.554;14.454;2022-12-11T09:49:36;-1.40;1.00
41939;DHT22;23057;48.554;14.454;2022-12-11T09:52:29;-1.50;20.20
41939;DHT22;23057;48.554;14.454;2022-12-11T09:55:19;-1.50;43.00
41939;DHT22;23057;48.554;14.454;2022-12-11T10:01:17;-1.60;99.90
41939;DHT22;23057;48.554;14.454;2022-12-11T10:07:32;-1.70;99.90
41939;DHT22;23057;48.554;14.454;2022-12-11T10:10:41;-1.70;99.90
41939;DHT22;23057;48.554;14.454;2022-12-11T10:16:37;-1.40;99.90
41939;DHT22;23057;48.554;14.454;2022-12-11T10:19:23;-1.30;99.90
41939;DHT22;23057;48.554;14.454;2022-12-11T10:21:59;-1.40;99.90
41939;DHT22;23057;48.554;14.454;2022-12-11T10:24:44;-1.30;99.90
41939;DHT22;23057;48.554;14.454;2022-12-11T10:27:33;-1.30;99.90
41939;DHT22;23057;48.554;14.454;2022-12-11T10:30:14;-1.30;99.90
41939;DHT22;23057;48.554;14.454;2022-12-11T10:35:54;-1.10;99.90
41939;DHT22;23057;48.554;14.454;2022-12-11T10:38:30;-1.10;89.20
41939;DHT22;23057;48.554;14.454;2022-12-11T10:41:18;-1.20;43.60
41939;DHT22;23057;48.554;14.454;2022-12-11T10:43:56;-1.30;1.00
41939;DHT22;23057;48.554;14.454;2022-12-11T10:46:29;-1.50;1.00
41939;DHT22;23057;48.554;14.454;2022-12-11T10:49:02;-1.60;1.00
41939;DHT22;23057;48.554;14.454;2022-12-11T10:51:35;-1.70;1.00
41939;DHT22;23057;48.554;14.454;2022-12-11T10:57:13;-0.80;1.00
41939;DHT22;23057;48.554;14.454;2022-12-11T10:59:48;-0.20;99.90
41939;DHT22;23057;48.554;14.454;2022-12-11T11:02:27;0.20;99.90
41939;DHT22;23057;48.554;14.454;2022-12-11T11:05:16;0.00;99.90
41939;DHT22;23057;48.554;14.454;2022-12-11T11:10:56;-0.40;99.90
41939;DHT22;23057;48.554;14.454;2022-12-11T11:13:31;-0.50;99.90
41939;DHT22;23057;48.554;14.454;2022-12-11T11:16:05;-0.50;99.90
41939;DHT22;23057;48.554;14.454;2022-12-11T11:18:52;-0.40;99.90
41939;DHT22;23057;48.554;14.454;2022-12-11T11:21:26;-0.60;99.90
41939;DHT22;23057;48.554;14.454;2022-12-11T11:23:59;-0.90;99.90
41939;DHT22;23057;48.554;14.454;2022-12-11T11:26:31;-1.00;99.90
41939;DHT22;23057;48.554;14.454;2022-12-11T11:29:03;-1.20;99.90
41939;DHT22;23057;48.554;14.454;2022-12-11T11:31:35;-1.10;99.90
41939;DHT22;23057;48.554;14.454;2022-12-11T11:34:13;-1.20;99.90
41939;DHT22;23057;48.554;14.454;2022-12-11T11:36:56;-1.20;99.90
41939;DHT22;23057;48.554;14.454;2022-12-11T11:39:41;-1.20;99.90
41939;DHT22;23057;48.554;14.454;2022-12-11T11:42:48;-1.40;1.00
41939;DHT22;23057;48.554;14.454;2022-12-11T11:51:29;-1.40;1.00
41939;DHT22;23057;48.554;14.454;2022-12-11T11:54:23;-1.30;1.00
41939;DHT22;23057;48.554;14.454;2022-12-11T11:57:26;-1.30;1.00
41939;DHT22;23057;48.554;14.454;2022-12-11T12:00:34;-1.90;99.90
41939;DHT22;23057;48.554;14.454;2022-12-11T12:03:11;-2.20;1.00
41939;DHT22;23057;48.554;14.454;2022-12-11T12:09:12;-2.60;99.90
41939;DHT22;23057;48.554;14.454;2022-12-11T12:15:58;-2.50;15.80
41939;DHT22;23057;48.554;14.454;2022-12-11T12:19:02;-2.40;1.00
41939;DHT22;23057;48.554;14.454;2022-12-11T12:25:36;-2.40;99.90
41939;DHT22;23057;48.554;14.454;2022-12-11T12:28:24;-2.40;99.90
41939;DHT22;23057;48.554;14.454;2022-12-11T12:44:19;-2.20;99.90
41939;DHT22;23057;48.554;14.454;2022-12-11T12:47:23;-2.30;99.90
41939;DHT22;23057;48.554;14.454;2022-12-11T12:50:02;-2.30;99.90
41939;DHT22;23057;48.554;14.454;2022-12-11T12:52:40;-2.20;99.90
41939;DHT22;23057;48.554;14.454;2022-12-11T12:58:03;-1.90;99.90
41939;DHT22;23057;48.554;14.454;2022-12-11T13:00:39;-1.70;51.90
41939;DHT22;23057;48.554;14.454;2022-12-11T13:03:21;-2.10;31.70
41939;DHT22;23057;48.554;14.454;2022-12-11T13:08:47;-2.30;99.90
41939;DHT22;23057;48.554;14.454;2022-12-11T13:11:30;-2.20;77.00
41939;DHT22;23057;48.554;14.454;2022-12-11T13:14:05;-2.20;56.90
41939;DHT22;23057;48.554;14.454;2022-12-11T13:17:24;-2.20;20.70
41939;DHT22;23057;48.554;14.454;2022-12-11T13:20:28;-2.20;38.30
41939;DHT22;23057;48.554;14.454;2022-12-11T13:25:57;-2.20;93.50
41939;DHT22;23057;48.554;14.454;2022-12-11T13:31:32;-2.40;78.20
41939;DHT22;23057;48.554;14.454;2022-12-11T13:34:19;-2.40;99.90
41939;DHT22;23057;48.554;14.454;2022-12-11T13:36:53;-2.60;98.80
41939;DHT22;23057;48.554;14.454;2022-12-11T13:39:26;-2.80;99.90
41939;DHT22;23057;48.554;14.454;2022-12-11T13:42:05;-2.90;99.90
41939;DHT22;23057;48.554;14.454;2022-12-11T13:45:21;-3.00;99.90
41939;DHT22;23057;48.554;14.454;2022-12-11T13:47:56;-2.90;99.90
41939;DHT22;23057;48.554;14.454;2022-12-11T13:50:31;-2.90;99.90
41939;DHT22;23057;48.554;14.454;2022-12-11T13:53:04;-3.00;99.90
41939;DHT22;23057;48.554;14.454;2022-12-11T13:55:35;-3.00;99.90
41939;DHT22;23057;48.554;14.454;2022-12-11T13:58:17;-2.90;99.90
41939;DHT22;23057;48.554;14.454;2022-12-11T14:03:52;-3.00;99.90
41939;DHT22;23057;48.554;14.454;2022-12-11T14:06:28;-3.00;99.90
41939;DHT22;23057;48.554;14.454;2022-12-11T14:09:04;-3.00;99.90
41939;DHT22;23057;48.554;14.454;2022-12-11T14:11:40;-3.00;99.90
41939;DHT22;23057;48.554;14.454;2022-12-11T14:14:39;-3.00;99.90
41939;DHT22;23057;48.554;14.454;2022-12-11T14:17:21;-3.00;99.90
41939;DHT22;23057;48.554;14.454;2022-12-11T14:19:58;-3.00;99.90
41939;DHT22;23057;48.554;14.454;2022-12-11T14:22:36;-3.00;99.90
41939;DHT22;23057;48.554;14.454;2022-12-11T14:25:21;-3.00;99.90
41939;DHT22;23057;48.554;14.454;2022-12-11T14:27:56;-3.00;99.90
41939;DHT22;23057;48.554;14.454;2022-12-11T14:30:29;-3.00;99.90
41939;DHT22;23057;48.554;14.454;2022-12-11T14:33:04;-3.10;99.90
41939;DHT22;23057;48.554;14.454;2022-12-11T14:35:39;-3.10;99.90
41939;DHT22;23057;48.554;14.454;2022-12-11T14:38:24;-3.20;99.90
41939;DHT22;23057;48.554;14.454;2022-12-11T14:41:55;-3.20;99.90
41939;DHT22;23057;48.554;14.454;2022-12-11T14:44:14;-3.20;99.90
41939;DHT22;23057;48.554;14.454;2022-12-11T14:46:54;-3.20;99.90
41939;DHT22;23057;48.554;14.454;2022-12-11T14:49:48;-3.20;99.90
41939;DHT22;23057;48.554;14.454;2022-12-11T14:52:50;-3.30;99.90
41939;DHT22;23057;48.554;14.454;2022-12-11T14:55:31;-3.30;1.00
41939;DHT22;23057;48.554;14.454;2022-12-11T14:58:14;-3.30;1.00
41939;DHT22;23057;48.554;14.454;2022-12-11T15:01:00;-3.30;6.80
41939;DHT22;23057;48.554;14.454;2022-12-11T15:03:41;-3.30;70.10
41939;DHT22;23057;48.554;14.454;2022-12-11T15:06:24;-3.30;99.90
41939;DHT22;23057;48.554;14.454;2022-12-11T15:11:59;-3.40;99.90
41939;DHT22;23057;48.554;14.454;2022-12-11T15:14:58;-3.40;99.90
41939;DHT22;23057;48.554;14.454;2022-12-11T15:17:34;-3.40;99.90
41939;DHT22;23057;48.554;14.454;2022-12-11T15:20:09;-3.50;1.00
41939;DHT22;23057;48.554;14.454;2022-12-11T15:22:53;-3.60;1.00
41939;DHT22;23057;48.554;14.454;2022-12-11T15:25:28;-3.70;1.00
41939;DHT22;23057;48.554;14.454;2022-12-11T15:28:00;-3.70;8.40
41939;DHT22;23057;48.554;14.454;2022-12-11T15:30:33;-3.70;61.50
41939;DHT22;23057;48.554;14.454;2022-12-11T15:36:03;-3.80;99.90
41939;DHT22;23057;48.554;14.454;2022-12-11T15:38:38;-3.90;99.90
41939;DHT22;23057;48.554;14.454;2022-12-11T15:41:13;-3.90;99.90
41939;DHT22;23057;48.554;14.454;2022-12-11T15:43:52;-3.90;99.90
41939;DHT22;23057;48.554;14.454;2022-12-11T15:46:26;-3.80;99.90
41939;DHT22;23057;48.554;14.454;2022-12-11T15:48:58;-3.80;99.90
41939;DHT22;23057;48.554;14.454;2022-12-11T15:51:29;-3.80;99.90
41939;DHT22;23057;48.554;14.454;2022-12-11T15:54:00;-3.80;99.90
41939;DHT22;23057;48.554;14.454;2022-12-11T15:56:30;-3.80;99.90
41939;DHT22;23057;48.554;14.454;2022-12-11T15:59:03;-3.70;99.90
41939;DHT22;23057;48.554;14.454;2022-12-11T16:01:36;-3.70;99.90
41939;DHT22;23057;48.554;14.454;2022-12-11T16:04:06;-3.70;99.90
41939;DHT22;23057;48.554;14.454;2022-12-11T16:06:37;-3.60;99.90
41939;DHT22;23057;48.554;14.454;2022-12-11T16:09:14;-3.60;99.90
41939;DHT22;23057;48.554;14.454;2022-12-11T16:11:45;-3.60;99.90
41939;DHT22;23057;48.554;14.454;2022-12-11T16:14:16;-3.60;99.90
41939;DHT22;23057;48.554;14.454;2022-12-11T16:16:46;-3.60;99.90
41939;DHT22;23057;48.554;14.454;2022-12-11T16:19:17;-3.70;99.90
41939;DHT22;23057;48.554;14.454;2022-12-11T16:21:48;-3.60;99.90
41939;DHT22;23057;48.554;14.454;2022-12-11T16:24:19;-3.60;99.90
41939;DHT22;23057;48.554;14.454;2022-12-11T16:26:50;-3.60;99.90
41939;DHT22;23057;48.554;14.454;2022-12-11T16:29:21;-3.50;99.90
41939;DHT22;23057;48.554;14.454;2022-12-11T16:31:51;-3.50;99.90
41939;DHT22;23057;48.554;14.454;2022-12-11T16:34:26;-3.70;99.90
41939;DHT22;23057;48.554;14.454;2022-12-11T16:36:58;-3.70;99.90
41939;DHT22;23057;48.554;14.454;2022-12-11T16:39:30;-3.70;99.90
41939;DHT22;23057;48.554;14.454;2022-12-11T16:42:01;-3.70;99.90
41939;DHT22;23057;48.554;14.454;2022-12-11T16:44:33;-3.80;99.90
41939;DHT22;23057;48.554;14.454;2022-12-11T16:47:04;-3.80;99.90
41939;DHT22;23057;48.554;14.454;2022-12-11T16:49:35;-3.90;99.90
41939;DHT22;23057;48.554;14.454;2022-12-11T16:52:06;-3.90;99.90
41939;DHT22;23057;48.554;14.454;2022-12-11T16:54:38;-3.90;99.90
41939;DHT22;23057;48.554;14.454;2022-12-11T16:57:09;-4.00;99.90
41939;DHT22;23057;48.554;14.454;2022-12-11T16:59:39;-4.10;99.90
41939;DHT22;23057;48.554;14.454;2022-12-11T17:02:11;-4.10;99.90
41939;DHT22;23057;48.554;14.454;2022-12-11T17:04:41;-4.10;99.90
41939;DHT22;23057;48.554;14.454;2022-12-11T17:07:13;-4.10;99.90
41939;DHT22;23057;48.554;14.454;2022-12-11T17:09:45;-4.10;99.90
41939;DHT22;23057;48.554;14.454;2022-12-11T17:12:16;-4.20;99.90
41939;DHT22;23057;48.554;14.454;2022-12-11T17:14:46;-4.30;99.90
41939;DHT22;23057;48.554;14.454;2022-12-11T17:17:17;-4.40;99.90
41939;DHT22;23057;48.554;14.454;2022-12-11T17:19:48;-4.40;99.90
41939;DHT22;23057;48.554;14.454;2022-12-11T17:22:20;-4.30;99.90
41939;DHT22;23057;48.554;14.454;2022-12-11T17:24:52;-4.30;99.90
41939;DHT22;23057;48.554;14.454;2022-12-11T17:27:22;-4.30;99.90
41939;DHT22;23057;48.554;14.454;2022-12-11T17:29:53;-4.40;99.90
41939;DHT22;23057;48.554;14.454;2022-12-11T17:32:24;-4.40;99.90
41939;DHT22;23057;48.554;14.454;2022-12-11T17:34:55;-4.40;99.90
41939;DHT22;23057;48.554;14.454;2022-12-11T17:37:26;-4.40;99.90